createdAt,value
2022-11-30T00:04:52.090Z,6.3
2022-11-30T00:10:12.197Z,6.3
2022-11-30T00:15:46.801Z,6.3
2022-11-30T00:21:24.323Z,6.3
2022-11-30T00:26:52.662Z,6.3
2022-11-30T00:32:18.210Z,6.3
2022-11-30T00:37:45.329Z,6.3
2022-11-30T00:43:22.378Z,6.3
2022-11-30T00:49:01.783Z,6.2
2022-11-30T00:54:34.904Z,6.2
2022-11-30T01:00:06.856Z,6.2
2022-11-30T01:05:17.954Z,6.2
2022-11-30T01:11:05.558Z,6.2
2022-11-30T01:16:40.572Z,6.2
2022-11-30T01:22:04.944Z,6.1
2022-11-30T01:27:46.518Z,6.1
2022-11-30T01:33:03.016Z,6.1
2022-11-30T01:38:59.331Z,6.1
2022-11-30T01:44:10.187Z,6.1
2022-11-30T01:49:37.956Z,6.1
2022-11-30T01:55:22.345Z,6.1
2022-11-30T02:00:53.704Z,6.1
2022-11-30T02:06:20.119Z,6.1
2022-11-30T02:11:50.911Z,6.1
2022-11-30T02:17:25.343Z,6.1
2022-11-30T02:22:55.701Z,6
2022-11-30T02:28:41.138Z,6
2022-11-30T02:34:03.332Z,6
2022-11-30T02:39:47.415Z,6
2022-11-30T02:45:22.824Z,6
2022-11-30T02:51:21.295Z,6
2022-11-30T02:56:13.290Z,5.9
2022-11-30T03:01:38.647Z,6
2022-11-30T03:07:11.610Z,6
2022-11-30T03:12:57.943Z,5.9
2022-11-30T03:18:19.830Z,5.9
2022-11-30T03:24:10.845Z,5.9
2022-11-30T03:29:45.360Z,5.9
2022-11-30T03:34:59.540Z,5.9
2022-11-30T03:40:22.814Z,5.9
2022-11-30T03:46:09.509Z,5.9
2022-11-30T03:51:38.372Z,5.9
2022-11-30T03:57:17.646Z,5.9
2022-11-30T04:02:56.475Z,5.9
2022-11-30T04:08:13.147Z,5.8
2022-11-30T04:14:00.573Z,5.7
2022-11-30T04:19:29.263Z,5.7
2022-11-30T04:24:45.439Z,5.6
2022-11-30T04:30:37.800Z,5.5
2022-11-30T04:36:01.186Z,5.5
2022-11-30T04:41:28.286Z,5.3
2022-11-30T04:46:56.053Z,5.3
2022-11-30T04:52:43.833Z,5.4
2022-11-30T04:58:02.945Z,5.4
2022-11-30T05:03:41.656Z,5.5
2022-11-30T05:09:17.614Z,5.3
2022-11-30T05:14:42.935Z,5.3
2022-11-30T05:20:11.615Z,5.3
2022-11-30T05:25:42.732Z,5.4
2022-11-30T05:31:31.580Z,5.4
2022-11-30T05:37:01.202Z,5.3
2022-11-30T05:42:21.658Z,5.4
2022-11-30T05:47:52.211Z,5.4
2022-11-30T05:53:19.985Z,5.4
2022-11-30T05:59:08.258Z,5.4
2022-11-30T06:04:25.434Z,5.4
2022-11-30T06:09:59.911Z,5.3
2022-11-30T06:15:41.242Z,5.3
2022-11-30T06:21:05.652Z,5.3
2022-11-30T06:26:45.015Z,5.2
2022-11-30T06:32:12.021Z,5.3
2022-11-30T06:37:43.599Z,5.4
2022-11-30T06:43:18.900Z,5.4
2022-11-30T06:48:54.797Z,5.5
2022-11-30T06:54:23.780Z,5.4
2022-11-30T06:59:54.340Z,5.4
2022-11-30T07:05:28.215Z,5.5
2022-11-30T07:11:00.784Z,5.6
2022-11-30T07:16:21.171Z,5.6
2022-11-30T07:21:56.017Z,5.8
2022-11-30T07:27:34.563Z,5.8
2022-11-30T07:32:48.469Z,5.8
2022-11-30T07:38:38.582Z,5.8
2022-11-30T07:44:06.131Z,5.9
2022-11-30T07:49:46.372Z,5.9
2022-11-30T07:55:10.866Z,6.1
2022-11-30T08:00:34.362Z,6
2022-11-30T08:06:15.249Z,6.1
2022-11-30T08:11:54.687Z,6.2
2022-11-30T08:17:13.974Z,6.2
2022-11-30T08:22:51.931Z,6.3
2022-11-30T08:28:16.191Z,6.2
2022-11-30T08:33:48.409Z,6.3
2022-11-30T08:39:35.386Z,6.3
2022-11-30T08:44:43.639Z,6.4
2022-11-30T08:50:18.277Z,6.4
2022-11-30T08:55:52.404Z,6.3
2022-11-30T09:01:31.533Z,6.5
2022-11-30T09:06:53.722Z,6.5
2022-11-30T09:12:53.476Z,6.8
2022-11-30T09:18:23.923Z,6.8
2022-11-30T09:23:41.479Z,6.8
2022-11-30T09:29:14.441Z,6.8
2022-11-30T09:34:58.643Z,6.7
2022-11-30T09:40:34.100Z,6.9
2022-11-30T09:45:45.177Z,7.1
2022-11-30T09:51:32.320Z,7.1
2022-11-30T09:56:48.149Z,7.1
2022-11-30T10:02:34.959Z,6.9
2022-11-30T10:08:18.193Z,7
2022-11-30T10:13:39.458Z,6.9
2022-11-30T10:19:23.627Z,6.9
2022-11-30T10:24:45.003Z,7
2022-11-30T10:30:26.141Z,7.1
2022-11-30T10:36:00.258Z,7.3
2022-11-30T10:41:32.509Z,7.2
2022-11-30T10:46:55.237Z,7.1
2022-11-30T10:52:43.306Z,7.1
2022-11-30T10:57:54.236Z,7
2022-11-30T11:03:26.734Z,6.9
2022-11-30T11:09:17.421Z,6.9
2022-11-30T11:14:59.273Z,6.8
2022-11-30T11:20:17.622Z,6.9
2022-11-30T11:25:59.803Z,7
2022-11-30T11:31:23.194Z,6.9
2022-11-30T11:36:53.761Z,7
2022-11-30T11:42:33.037Z,6.9
2022-11-30T11:47:57.431Z,6.9
2022-11-30T11:53:52.878Z,6.9
2022-11-30T11:58:55.905Z,6.9
2022-11-30T12:04:37.558Z,6.9
2022-11-30T12:10:43.458Z,7.1
2022-11-30T12:15:38.784Z,7.1
2022-11-30T12:21:12.326Z,7
2022-11-30T12:26:50.788Z,7
2022-11-30T12:32:42.751Z,6.9
2022-11-30T12:37:54.052Z,6.9
2022-11-30T12:43:35.201Z,7
2022-11-30T12:49:17.805Z,7.1
2022-11-30T12:54:32.998Z,6.8
2022-11-30T13:00:28.672Z,6.7
2022-11-30T13:05:51.599Z,6.6
2022-11-30T13:11:18.166Z,6.5
2022-11-30T13:16:53.231Z,6.6
2022-11-30T13:22:33.220Z,7
2022-11-30T13:27:54.465Z,7
2022-11-30T13:33:19.926Z,6.8
2022-11-30T13:39:06.006Z,6.5
2022-11-30T13:44:52.369Z,6.4
2022-11-30T13:50:26.411Z,6.3
2022-11-30T13:55:32.768Z,6.1
2022-11-30T14:01:52.704Z,6
2022-11-30T14:06:54.292Z,6
2022-11-30T14:12:17.717Z,5.9
2022-11-30T14:18:07.760Z,5.9
2022-11-30T14:23:36.954Z,5.9
2022-11-30T14:28:54.472Z,5.9
2022-11-30T14:34:42.953Z,5.9
2022-11-30T14:40:03.576Z,6
2022-11-30T14:45:28.323Z,5.9
2022-11-30T14:51:13.580Z,5.9
2022-11-30T14:57:01.136Z,5.8
2022-11-30T15:02:24.874Z,5.7
2022-11-30T15:07:42.890Z,5.5
2022-11-30T15:13:20.766Z,5.4
2022-11-30T15:18:59.683Z,5.5
2022-11-30T15:24:21.535Z,5.3
2022-11-30T15:30:05.012Z,5.3
2022-11-30T15:36:14.082Z,5.3
2022-11-30T15:41:10.876Z,5.2
2022-11-30T15:46:49.153Z,5.1
2022-11-30T15:52:15.797Z,5.1
2022-11-30T15:57:37.076Z,5.1
2022-11-30T16:03:13.406Z,5.1
2022-11-30T16:09:03.301Z,5.1
2022-11-30T16:14:19.353Z,5.1
2022-11-30T16:20:09.319Z,5.1
2022-11-30T16:25:40.900Z,5.1
2022-11-30T16:30:59.981Z,5.1
2022-11-30T16:36:30.243Z,5
2022-11-30T16:41:56.829Z,5.1
2022-11-30T16:47:51.674Z,5
2022-11-30T16:53:09.412Z,5.1
2022-11-30T16:58:50.574Z,5
2022-11-30T17:04:23.999Z,5
2022-11-30T17:09:53.445Z,5
2022-11-30T17:15:06.550Z,5.1
2022-11-30T17:20:46.979Z,5.1
2022-11-30T17:26:16.335Z,5.1
2022-11-30T17:32:12.367Z,5.1
2022-11-30T17:37:36.584Z,5.2
2022-11-30T17:43:16.533Z,5.2
2022-11-30T17:48:36.541Z,5.2
2022-11-30T17:53:55.747Z,5.2
2022-11-30T17:59:55.993Z,5.2
2022-11-30T18:05:08.369Z,5.2
2022-11-30T18:10:37.315Z,5.2
2022-11-30T18:16:33.972Z,5.1
2022-11-30T18:21:59.361Z,5.1
2022-11-30T18:27:20.833Z,5
2022-11-30T18:33:01.732Z,5
2022-11-30T18:44:05.594Z,4.8
2022-11-30T18:49:37.442Z,4.8
2022-11-30T18:55:06.915Z,4.7
2022-11-30T19:00:29.030Z,4.7
2022-11-30T19:06:02.397Z,4.6
2022-11-30T19:11:39.122Z,4.6
2022-11-30T19:17:14.445Z,4.6
2022-11-30T19:22:58.125Z,4.5
2022-11-30T19:28:17.657Z,4.5
2022-11-30T19:34:07.796Z,4.5
2022-11-30T19:39:28.440Z,4.5
2022-11-30T19:45:06.950Z,4.5
2022-11-30T19:50:46.762Z,4.5
2022-11-30T19:56:20.772Z,4.5
2022-11-30T20:01:36.077Z,4.4
2022-11-30T20:07:03.421Z,4.4
2022-11-30T20:12:54.580Z,4.4
2022-11-30T20:18:25.627Z,4.3
2022-11-30T20:23:44.323Z,4.3
2022-11-30T20:29:27.756Z,4.3
2022-11-30T20:35:04.635Z,4.2
2022-11-30T20:40:24.288Z,4.1
2022-11-30T20:46:00.144Z,4.2
2022-11-30T20:51:43.665Z,4.1
2022-11-30T20:57:21.869Z,4.1
2022-11-30T21:02:57.012Z,4.1
2022-11-30T21:08:10.029Z,4.1
2022-11-30T21:13:49.936Z,4
2022-11-30T21:19:21.438Z,4.1
2022-11-30T21:25:03.821Z,4
2022-11-30T21:30:16.593Z,4.1
2022-11-30T21:36:01.594Z,4
2022-11-30T21:41:29.956Z,4
2022-11-30T21:46:59.022Z,4
2022-11-30T21:52:35.215Z,4
2022-11-30T21:58:10.687Z,3.9
2022-11-30T22:03:31.332Z,3.9
2022-11-30T22:09:10.749Z,3.9
2022-11-30T22:14:46.247Z,3.9
2022-11-30T22:20:18.258Z,3.9
2022-11-30T22:25:46.084Z,3.9
2022-11-30T22:31:14.937Z,3.9
2022-11-30T22:37:08.435Z,3.9
2022-11-30T22:42:23.433Z,3.9
2022-11-30T22:48:06.104Z,3.9
2022-11-30T22:53:43.479Z,3.9
2022-11-30T22:59:05.549Z,3.9
2022-11-30T23:04:35.458Z,3.9
2022-11-30T23:10:17.066Z,3.9
2022-11-30T23:15:57.252Z,3.9
2022-11-30T23:21:26.783Z,4
2022-11-30T23:26:51.917Z,4
2022-11-30T23:32:26.305Z,4
2022-11-30T23:37:57.482Z,4
2022-11-30T23:43:25.144Z,4
2022-11-30T23:48:55.728Z,4
2022-11-30T23:54:38.526Z,4
